Time;durP1;ratioP1;P1;durP2;ratioP2;P2;SDS_P1;SDS_P2;PMS_P1;PMS_P2;Temp;Humidity;BMP_temperature;BMP_pressure;BME280_temperature;BME280_humidity;BME280_pressure;Samples;Min_cycle;Max_cycle;Signal;HPM_P1;HPM_P2
2021/05/08 00:01:24;;;;;;;1.17;0.37;;;9.20;99.90;;;;;;4225333;28;20870;-65
2021/05/08 00:03:26;;;;;;;1.57;0.93;;;9.20;99.90;;;;;;4223913;28;20019;-57
2021/05/08 00:05:30;;;;;;;1.13;0.60;;;9.20;99.90;;;;;;4224605;28;20032;-58
2021/05/08 00:07:31;;;;;;;1.20;0.70;;;9.10;99.90;;;;;;4223653;28;20036;-56
2021/05/08 00:09:32;;;;;;;0.77;0.43;;;9.10;99.90;;;;;;4224426;28;20495;-58
2021/05/08 00:11:37;;;;;;;0.97;0.73;;;9.10;99.90;;;;;;4224143;27;20085;-54
2021/05/08 00:13:38;;;;;;;0.97;0.70;;;9.20;99.90;;;;;;4222328;28;20035;-55
2021/05/08 00:15:39;;;;;;;1.80;0.40;;;9.10;99.90;;;;;;4223619;28;20100;-56
2021/05/08 00:17:40;;;;;;;0.90;0.60;;;9.20;99.90;;;;;;4222730;27;20031;-58
2021/05/08 00:19:42;;;;;;;0.93;0.80;;;9.10;99.90;;;;;;4224177;28;20024;-58
2021/05/08 00:21:43;;;;;;;2.60;1.00;;;9.10;99.90;;;;;;4223575;28;20425;-58
2021/05/08 00:23:44;;;;;;;1.33;1.23;;;9.10;99.90;;;;;;4223823;28;20276;-55
2021/05/08 00:25:46;;;;;;;1.23;1.03;;;9.10;99.90;;;;;;4221606;28;20027;-58
2021/05/08 00:27:47;;;;;;;1.90;1.17;;;9.10;99.90;;;;;;4223740;28;20031;-58
2021/05/08 00:29:48;;;;;;;2.03;1.33;;;9.10;99.90;;;;;;4223234;28;20097;-58
2021/05/08 00:31:49;;;;;;;1.43;0.87;;;9.10;99.90;;;;;;4224134;28;20068;-53
2021/05/08 00:33:50;;;;;;;2.30;0.97;;;9.10;99.90;;;;;;4223547;28;20027;-58
2021/05/08 00:35:51;;;;;;;1.17;0.97;;;9.10;99.90;;;;;;4224497;28;20039;-55
2021/05/08 00:37:52;;;;;;;1.10;0.90;;;9.10;99.90;;;;;;4220928;28;20032;-54
2021/05/08 00:39:53;;;;;;;1.73;1.33;;;9.10;99.90;;;;;;4224088;28;20036;-54
2021/05/08 00:41:55;;;;;;;1.80;1.33;;;9.20;99.90;;;;;;4223093;28;20421;-58
2021/05/08 00:43:57;;;;;;;2.40;1.30;;;9.20;99.90;;;;;;4223878;28;20479;-55
2021/05/08 00:45:59;;;;;;;1.20;1.03;;;9.20;99.90;;;;;;4223485;28;20016;-55
2021/05/08 00:48:06;;;;;;;1.60;1.30;;;9.20;99.90;;;;;;4223810;28;20073;-55
2021/05/08 00:50:12;;;;;;;1.23;1.10;;;9.20;99.90;;;;;;4223836;28;20028;-57
2021/05/08 00:52:14;;;;;;;1.40;1.30;;;9.20;99.90;;;;;;4223548;28;20036;-51
2021/05/08 00:54:15;;;;;;;1.37;1.20;;;9.20;99.90;;;;;;4221160;28;20076;-58
2021/05/08 00:56:17;;;;;;;2.00;1.37;;;9.20;99.90;;;;;;4223284;28;20069;-59
2021/05/08 00:58:19;;;;;;;2.03;1.30;;;9.20;99.90;;;;;;4223486;28;20077;-56
2021/05/08 01:00:21;;;;;;;1.90;1.27;;;9.20;99.90;;;;;;4223052;28;20539;-57
2021/05/08 01:02:22;;;;;;;1.87;1.37;;;9.20;99.90;;;;;;4223155;28;20032;-58
2021/05/08 01:04:23;;;;;;;1.43;1.20;;;9.20;99.90;;;;;;4222382;28;20035;-59
2021/05/08 01:06:24;;;;;;;1.67;1.20;;;9.30;99.90;;;;;;4223370;28;20043;-56
2021/05/08 01:08:26;;;;;;;1.63;1.37;;;9.30;99.90;;;;;;4219503;28;20510;-59
2021/05/08 01:10:29;;;;;;;1.30;1.20;;;9.30;99.90;;;;;;4223780;27;20088;-53
2021/05/08 01:12:31;;;;;;;1.67;1.40;;;9.20;99.90;;;;;;4222662;28;20623;-62
2021/05/08 01:14:32;;;;;;;2.30;1.27;;;9.30;99.90;;;;;;4223109;28;20031;-59
2021/05/08 01:16:33;;;;;;;3.30;1.60;;;9.30;99.90;;;;;;4223260;28;20425;-59
2021/05/08 01:18:35;;;;;;;1.87;1.50;;;9.20;99.90;;;;;;4223750;27;20487;-56
2021/05/08 01:20:36;;;;;;;3.00;1.43;;;9.20;99.90;;;;;;4223130;27;20043;-54
2021/05/08 01:22:39;;;;;;;3.53;1.50;;;9.30;99.90;;;;;;4222983;28;20092;-56
2021/05/08 01:24:40;;;;;;;1.20;1.10;;;9.30;99.90;;;;;;4221029;28;20031;-56
2021/05/08 01:26:41;;;;;;;1.57;1.27;;;9.30;99.90;;;;;;4222874;28;20031;-58
2021/05/08 01:28:43;;;;;;;1.40;1.30;;;9.30;99.90;;;;;;4223185;28;20051;-55
2021/05/08 01:30:44;;;;;;;1.87;1.50;;;9.30;99.90;;;;;;4219909;28;20088;-53
2021/05/08 01:32:46;;;;;;;3.07;1.63;;;9.20;99.90;;;;;;4206342;28;20480;-56
2021/05/08 01:34:47;;;;;;;3.23;1.93;;;9.20;99.90;;;;;;4205449;28;20082;-56
2021/05/08 01:36:48;;;;;;;2.40;2.10;;;9.20;99.90;;;;;;4206352;28;20024;-58
2021/05/08 01:38:49;;;;;;;2.37;2.00;;;9.20;99.90;;;;;;4205551;28;20081;-55
2021/05/08 01:41:01;;;;;;;2.37;1.93;;;9.20;99.90;;;;;;4205523;28;20401;-58
2021/05/08 01:43:03;;;;;;;4.80;2.20;;;9.20;99.90;;;;;;4188411;28;20078;-57
2021/05/08 01:45:16;;;;;;;2.43;2.10;;;9.20;99.90;;;;;;4190026;28;20029;-55
2021/05/08 01:47:17;;;;;;;4.40;2.60;;;9.30;99.90;;;;;;4189132;28;20013;-58
2021/05/08 01:49:18;;;;;;;4.43;2.67;;;9.20;99.90;;;;;;4189346;28;20048;-63
2021/05/08 01:51:19;;;;;;;3.87;2.37;;;9.20;99.90;;;;;;4189035;28;20090;-59
2021/05/08 01:53:20;;;;;;;4.70;2.60;;;9.20;99.90;;;;;;4189324;28;20102;-58
2021/05/08 01:55:24;;;;;;;3.37;2.77;;;9.30;99.90;;;;;;4188870;28;20070;-58
2021/05/08 01:57:25;;;;;;;3.97;3.40;;;9.20;99.90;;;;;;4197230;28;20028;-61
2021/05/08 01:59:26;;;;;;;4.90;3.50;;;9.20;99.90;;;;;;4205441;28;20048;-58
2021/05/08 02:01:27;;;;;;;5.17;3.13;;;9.30;99.90;;;;;;4205419;28;20036;-61
2021/05/08 02:03:29;;;;;;;4.20;3.37;;;9.20;99.90;;;;;;4204686;28;20032;-53
2021/05/08 02:05:32;;;;;;;4.53;3.23;;;9.20;99.90;;;;;;4205480;28;20449;-56
2021/05/08 02:07:34;;;;;;;4.57;3.50;;;9.20;99.90;;;;;;4205215;28;20054;-58
2021/05/08 02:09:35;;;;;;;4.70;3.47;;;9.20;99.90;;;;;;4205137;28;20089;-59
2021/05/08 02:11:36;;;;;;;4.60;3.70;;;9.10;99.90;;;;;;4204278;28;20032;-56
2021/05/08 02:13:39;;;;;;;3.50;3.20;;;9.10;99.90;;;;;;4205166;28;20423;-57
2021/05/08 02:15:41;;;;;;;4.37;1.90;;;9.10;99.90;;;;;;4218670;28;20646;-54
2021/05/08 02:17:43;;;;;;;4.10;1.40;;;9.00;99.90;;;;;;4222315;28;20475;-56
2021/05/08 02:19:44;;;;;;;1.23;1.10;;;8.90;99.90;;;;;;4222783;28;20072;-57
2021/05/08 02:21:45;;;;;;;3.80;1.57;;;8.70;99.90;;;;;;4221733;28;20031;-58
2021/05/08 02:23:46;;;;;;;1.70;1.60;;;8.50;99.90;;;;;;4222045;28;20032;-59
2021/05/08 02:25:48;;;;;;;2.50;1.90;;;8.40;99.90;;;;;;4219617;28;20078;-54
2021/05/08 02:27:49;;;;;;;2.00;1.73;;;8.20;99.90;;;;;;4222178;28;20069;-62
2021/05/08 02:29:50;;;;;;;2.77;2.20;;;8.10;99.90;;;;;;4221844;28;20487;-58
2021/05/08 02:31:51;;;;;;;3.37;2.53;;;8.00;99.90;;;;;;4222272;28;20028;-56
2021/05/08 02:33:53;;;;;;;2.03;1.70;;;8.00;99.90;;;;;;4221939;28;20057;-57
2021/05/08 02:35:54;;;;;;;4.07;1.10;;;7.90;99.90;;;;;;4222234;28;20112;-53
2021/05/08 02:37:56;;;;;;;4.00;1.53;;;7.90;99.90;;;;;;4222343;28;20051;-56
2021/05/08 02:39:58;;;;;;;1.17;0.60;;;7.80;99.90;;;;;;4222528;28;20820;-57
2021/05/08 02:41:59;;;;;;;1.57;1.27;;;7.70;99.90;;;;;;4221966;28;20035;-58
2021/05/08 02:44:00;;;;;;;0.70;0.70;;;7.60;99.90;;;;;;4220093;28;20898;-59
2021/05/08 02:46:01;;;;;;;3.40;0.97;;;7.50;99.90;;;;;;4221863;28;20096;-56
2021/05/08 02:48:03;;;;;;;2.50;1.20;;;7.50;99.90;;;;;;4221631;28;20084;-57
2021/05/08 02:50:05;;;;;;;1.10;0.90;;;7.40;99.90;;;;;;4222554;28;20081;-57
2021/05/08 02:52:06;;;;;;;1.30;0.90;;;7.30;99.90;;;;;;4221343;28;20077;-57
2021/05/08 02:54:07;;;;;;;4.50;1.13;;;7.30;99.90;;;;;;4222293;28;20036;-58
2021/05/08 02:56:08;;;;;;;3.73;1.20;;;7.30;99.90;;;;;;4221618;28;20089;-58
2021/05/08 02:58:10;;;;;;;1.37;1.13;;;7.20;99.90;;;;;;4222319;28;20448;-58
2021/05/08 03:00:14;;;;;;;0.87;0.87;;;7.20;99.90;;;;;;4216946;28;20077;-56
2021/05/08 03:02:15;;;;;;;1.70;1.10;;;7.20;99.90;;;;;;4205380;28;20028;-64
2021/05/08 03:04:16;;;;;;;1.33;1.20;;;7.10;99.90;;;;;;4205316;28;20040;-57
2021/05/08 03:06:17;;;;;;;2.10;1.30;;;7.10;99.90;;;;;;4205357;28;20040;-58
2021/05/08 03:08:19;;;;;;;1.10;1.00;;;7.20;99.90;;;;;;4205093;28;20085;-59
2021/05/08 03:10:20;;;;;;;2.27;0.90;;;7.10;99.90;;;;;;4205254;28;20044;-53
2021/05/08 03:12:22;;;;;;;1.20;0.80;;;7.10;99.90;;;;;;4209190;28;20031;-58
2021/05/08 03:14:23;;;;;;;3.70;0.87;;;7.10;99.90;;;;;;4207668;28;20814;-57
2021/05/08 03:16:26;;;;;;;2.33;1.47;;;7.10;99.90;;;;;;4208036;28;20078;-57
2021/05/08 03:18:27;;;;;;;2.83;0.93;;;7.10;99.90;;;;;;4209965;28;20073;-52
2021/05/08 03:20:28;;;;;;;1.20;1.07;;;7.10;99.90;;;;;;4208893;28;20032;-56
2021/05/08 03:22:29;;;;;;;1.20;1.10;;;7.10;99.90;;;;;;4207921;28;20116;-56
2021/05/08 03:24:31;;;;;;;1.10;1.00;;;7.10;99.90;;;;;;4208534;28;20032;-54
2021/05/08 03:26:32;;;;;;;3.13;1.37;;;7.10;99.90;;;;;;4206615;28;20152;-57
2021/05/08 03:28:33;;;;;;;1.87;1.10;;;7.10;99.90;;;;;;4208111;28;20726;-57
2021/05/08 03:30:34;;;;;;;2.83;1.10;;;7.10;99.90;;;;;;4207752;28;20036;-57
2021/05/08 03:32:35;;;;;;;1.57;1.43;;;7.10;99.90;;;;;;4208278;28;20028;-57
2021/05/08 03:34:36;;;;;;;3.83;1.27;;;7.10;99.90;;;;;;4214546;28;20019;-63
2021/05/08 03:36:38;;;;;;;2.37;1.90;;;7.00;99.90;;;;;;4224540;27;20028;-56
2021/05/08 03:38:39;;;;;;;5.23;1.60;;;7.00;99.90;;;;;;4224630;28;20107;-50
2021/05/08 03:40:40;;;;;;;2.87;1.27;;;7.00;99.90;;;;;;4223332;27;20081;-58
2021/05/08 03:42:41;;;;;;;3.60;1.50;;;7.00;99.90;;;;;;4218742;28;20605;-55
2021/05/08 03:44:42;;;;;;;2.73;1.40;;;7.00;99.90;;;;;;4207167;28;20042;-58
2021/05/08 03:46:43;;;;;;;2.20;2.00;;;7.00;99.90;;;;;;4207741;28;20086;-58
2021/05/08 03:48:44;;;;;;;2.60;1.67;;;6.90;99.90;;;;;;4207681;28;20082;-57
2021/05/08 03:50:46;;;;;;;2.00;1.60;;;6.90;99.90;;;;;;4207957;28;20028;-51
2021/05/08 03:52:47;;;;;;;2.83;2.30;;;6.90;99.90;;;;;;4212317;28;20031;-55
2021/05/08 03:54:50;;;;;;;3.33;1.80;;;6.90;99.90;;;;;;4224531;28;21036;-58
2021/05/08 03:56:51;;;;;;;2.37;1.80;;;6.90;99.90;;;;;;4223590;28;20077;-56
2021/05/08 03:58:52;;;;;;;2.43;1.97;;;6.90;99.90;;;;;;4224494;28;20497;-57
2021/05/08 04:00:54;;;;;;;2.27;1.60;;;6.90;99.90;;;;;;4221925;28;20124;-62
2021/05/08 04:02:55;;;;;;;3.53;1.93;;;6.90;99.90;;;;;;4223330;27;20048;-58
2021/05/08 04:04:56;;;;;;;2.87;1.93;;;6.90;99.90;;;;;;4224318;28;20499;-55
2021/05/08 04:06:57;;;;;;;2.13;1.90;;;6.90;99.90;;;;;;4223775;27;20097;-57
2021/05/08 04:08:58;;;;;;;4.97;1.93;;;6.90;99.90;;;;;;4224365;28;20139;-58
2021/05/08 04:10:59;;;;;;;2.90;2.20;;;6.90;99.90;;;;;;4215628;27;20137;-58
2021/05/08 04:13:00;;;;;;;2.03;1.77;;;6.90;99.90;;;;;;4207117;28;20069;-57
2021/05/08 04:15:02;;;;;;;2.50;1.70;;;7.00;99.90;;;;;;4207328;28;20553;-53
2021/05/08 04:17:03;;;;;;;4.57;1.57;;;7.00;99.90;;;;;;4207370;28;20487;-58
2021/05/08 04:19:05;;;;;;;4.27;2.37;;;7.10;99.90;;;;;;4207062;28;20430;-59
2021/05/08 04:21:06;;;;;;;2.30;2.10;;;7.20;99.90;;;;;;4208179;28;20550;-52
2021/05/08 04:23:07;;;;;;;2.07;1.80;;;7.20;99.90;;;;;;4204599;28;20036;-54
2021/05/08 04:25:08;;;;;;;4.67;2.50;;;7.30;99.90;;;;;;4207397;28;20545;-58
2021/05/08 04:27:09;;;;;;;2.17;1.97;;;7.40;99.90;;;;;;4206497;28;20361;-55
2021/05/08 04:29:10;;;;;;;3.90;2.20;;;7.40;99.90;;;;;;4223536;28;20823;-56
2021/05/08 04:31:12;;;;;;;2.40;2.13;;;7.40;99.90;;;;;;4223662;28;20384;-58
2021/05/08 04:33:13;;;;;;;2.63;2.10;;;7.40;99.90;;;;;;4223686;28;20023;-58
2021/05/08 04:35:16;;;;;;;3.97;1.90;;;7.50;99.90;;;;;;4222259;28;20417;-49
2021/05/08 04:37:17;;;;;;;3.17;2.10;;;7.90;99.90;;;;;;4206258;28;20032;-60
2021/05/08 04:39:18;;;;;;;2.70;2.40;;;7.80;99.90;;;;;;4206734;28;20073;-58
2021/05/08 04:41:19;;;;;;;7.80;1.73;;;7.90;99.90;;;;;;4206443;28;20077;-59
2021/05/08 04:43:21;;;;;;;4.57;1.97;;;8.20;99.90;;;;;;4207004;28;20943;-59
2021/05/08 04:45:25;;;;;;;3.33;1.90;;;8.50;99.90;;;;;;4191412;28;20430;-56
2021/05/08 04:47:27;;;;;;;5.33;1.90;;;8.40;99.90;;;;;;4190089;28;20078;-59
2021/05/08 04:49:29;;;;;;;2.50;1.97;;;8.50;99.90;;;;;;4189988;28;20161;-59
2021/05/08 04:51:30;;;;;;;2.63;2.13;;;9.20;99.90;;;;;;4190446;28;20028;-55
2021/05/08 04:53:32;;;;;;;2.97;2.37;;;9.80;99.90;;;;;;4188828;28;20024;-58
2021/05/08 04:55:34;;;;;;;4.93;1.70;;;10.00;99.90;;;;;;4207381;28;20044;-60
2021/05/08 04:57:35;;;;;;;1.87;1.70;;;9.90;99.90;;;;;;4205883;28;20035;-54
2021/05/08 04:59:36;;;;;;;3.43;1.77;;;10.20;99.90;;;;;;4206537;28;20406;-59
2021/05/08 05:01:37;;;;;;;3.00;1.67;;;10.40;99.90;;;;;;4212698;28;20073;-57
2021/05/08 05:03:39;;;;;;;2.50;1.80;;;10.60;99.90;;;;;;4223417;28;20033;-58
2021/05/08 05:05:40;;;;;;;2.00;1.50;;;10.90;99.90;;;;;;4222980;28;20043;-58
2021/05/08 05:07:44;;;;;;;2.13;1.80;;;10.90;99.90;;;;;;4213568;28;20077;-58
2021/05/08 05:09:45;;;;;;;3.47;1.97;;;10.60;99.90;;;;;;4206171;28;20036;-59
2021/05/08 05:11:46;;;;;;;2.70;1.77;;;10.50;99.90;;;;;;4206119;28;20036;-56
2021/05/08 05:13:48;;;;;;;4.23;1.93;;;10.40;99.90;;;;;;4206762;28;20872;-58
2021/05/08 05:15:50;;;;;;;2.97;1.77;;;10.20;99.90;;;;;;4204108;28;20923;-56
2021/05/08 05:17:54;;;;;;;2.27;2.07;;;9.80;99.90;;;;;;4207441;28;20036;-65
2021/05/08 05:19:55;;;;;;;2.80;2.33;;;9.80;99.90;;;;;;4206014;28;20081;-58
2021/05/08 05:21:56;;;;;;;2.57;1.90;;;9.50;99.90;;;;;;4205214;28;20474;-57
2021/05/08 05:23:57;;;;;;;3.57;2.37;;;9.40;99.90;;;;;;4205789;28;20078;-54
2021/05/08 05:25:59;;;;;;;3.47;2.40;;;9.30;99.90;;;;;;4206508;28;20476;-59
2021/05/08 05:28:00;;;;;;;2.60;1.97;;;9.20;99.90;;;;;;4205390;28;20487;-58
2021/05/08 05:30:01;;;;;;;2.70;1.83;;;9.20;99.90;;;;;;4206174;28;20097;-53
2021/05/08 05:32:02;;;;;;;2.70;1.90;;;9.00;99.90;;;;;;4206250;28;20032;-60
2021/05/08 05:34:04;;;;;;;4.43;2.20;;;9.00;99.90;;;;;;4205863;28;20050;-58
2021/05/08 05:36:05;;;;;;;1.87;1.70;;;9.10;99.90;;;;;;4205016;28;20502;-58
2021/05/08 05:38:07;;;;;;;3.80;2.07;;;9.10;99.90;;;;;;4205717;28;20561;-56
2021/05/08 05:40:08;;;;;;;4.77;2.37;;;9.10;99.90;;;;;;4205532;28;20035;-57
2021/05/08 05:42:10;;;;;;;4.13;2.40;;;9.10;99.90;;;;;;4206567;28;20074;-55
2021/05/08 05:44:11;;;;;;;3.27;1.90;;;9.10;99.90;;;;;;4205431;28;20039;-60
2021/05/08 05:46:13;;;;;;;3.07;2.40;;;9.10;99.90;;;;;;4205305;28;20054;-56
2021/05/08 05:48:14;;;;;;;3.23;2.43;;;9.30;99.90;;;;;;4206099;28;20499;-58
2021/05/08 05:50:15;;;;;;;3.90;2.13;;;9.30;99.90;;;;;;4206614;28;20136;-57
2021/05/08 05:52:17;;;;;;;4.90;2.53;;;9.40;99.90;;;;;;4205286;28;20534;-59
2021/05/08 05:54:18;;;;;;;3.07;2.10;;;9.30;99.90;;;;;;4205870;28;20129;-60
2021/05/08 05:56:21;;;;;;;4.13;3.00;;;9.40;99.90;;;;;;4206559;28;20101;-59
2021/05/08 05:58:23;;;;;;;5.47;2.50;;;9.30;99.90;;;;;;4206022;28;20105;-59
2021/05/08 06:00:24;;;;;;;4.80;2.87;;;9.20;99.90;;;;;;4215803;28;20032;-63
2021/05/08 06:02:25;;;;;;;11.30;3.50;;;9.10;99.90;;;;;;4211021;28;20495;-57
2021/05/08 06:04:27;;;;;;;3.03;2.30;;;9.20;99.90;;;;;;4205892;28;20373;-60
2021/05/08 06:06:28;;;;;;;6.53;3.03;;;9.70;99.90;;;;;;4204673;28;20047;-59
2021/05/08 06:08:29;;;;;;;5.10;2.30;;;9.90;99.90;;;;;;4203434;28;20036;-51
2021/05/08 06:10:30;;;;;;;5.30;2.60;;;10.20;99.90;;;;;;4204895;28;20063;-58
2021/05/08 06:12:32;;;;;;;3.70;2.27;;;10.00;99.90;;;;;;4204837;28;20426;-59
2021/05/08 06:14:33;;;;;;;3.67;2.77;;;9.90;99.90;;;;;;4204579;28;20062;-60
2021/05/08 06:16:34;;;;;;;5.40;2.70;;;9.80;99.90;;;;;;4203223;28;20105;-57
2021/05/08 06:18:35;;;;;;;4.47;2.13;;;9.60;99.90;;;;;;4189295;28;20494;-58
2021/05/08 06:20:36;;;;;;;20.43;6.17;;;9.50;99.90;;;;;;4188370;28;20050;-55
2021/05/08 06:22:38;;;;;;;26.63;11.57;;;9.60;99.90;;;;;;4189359;28;20028;-58
2021/05/08 06:24:39;;;;;;;7.63;3.23;;;9.70;99.90;;;;;;4189786;28;20097;-55
2021/05/08 06:26:40;;;;;;;5.37;2.60;;;10.20;99.90;;;;;;4203465;28;20094;-60
2021/05/08 06:28:41;;;;;;;6.00;2.73;;;10.30;99.90;;;;;;4204640;28;20490;-59
2021/05/08 06:30:42;;;;;;;6.77;2.87;;;10.20;99.90;;;;;;4205422;28;20097;-60
2021/05/08 06:32:43;;;;;;;10.20;2.77;;;10.00;99.90;;;;;;4204974;28;20085;-58
2021/05/08 06:34:44;;;;;;;6.83;2.97;;;10.30;99.90;;;;;;4205262;28;20032;-56
2021/05/08 06:36:45;;;;;;;6.43;2.73;;;10.50;99.90;;;;;;4204622;28;20125;-61
2021/05/08 06:38:46;;;;;;;6.47;2.57;;;10.70;99.90;;;;;;4204944;28;20775;-60
2021/05/08 06:40:48;;;;;;;2.77;1.70;;;11.00;99.90;;;;;;4205021;28;20044;-63
2021/05/08 06:42:49;;;;;;;4.27;1.60;;;11.20;99.90;;;;;;4205186;28;20421;-61
2021/05/08 06:44:50;;;;;;;3.10;1.70;;;11.30;99.90;;;;;;4205569;28;20537;-64
2021/05/08 06:47:00;;;;;;;2.23;1.60;;;11.40;99.50;;;;;;4190368;28;20682;-58
2021/05/08 06:49:01;;;;;;;1.30;1.08;;;11.60;97.70;;;;;;4192231;28;20457;-56
2021/05/08 06:51:05;;;;;;;2.33;1.37;;;11.70;97.90;;;;;;4192032;28;20075;-63
2021/05/08 06:53:06;;;;;;;1.10;0.87;;;11.60;96.00;;;;;;4206086;28;20028;-57
2021/05/08 06:55:08;;;;;;;2.20;1.40;;;11.60;95.00;;;;;;4208005;28;20036;-60
2021/05/08 06:57:09;;;;;;;2.60;1.20;;;11.60;94.50;;;;;;4208272;28;20101;-58
2021/05/08 06:59:10;;;;;;;6.00;1.70;;;11.60;93.90;;;;;;4208249;28;20036;-59
2021/05/08 07:01:11;;;;;;;2.83;1.07;;;11.80;94.60;;;;;;4208439;28;20426;-58
2021/05/08 07:03:12;;;;;;;5.00;1.37;;;12.10;93.10;;;;;;4207308;28;20081;-57
2021/05/08 07:05:13;;;;;;;2.03;1.30;;;12.10;91.30;;;;;;4208925;28;20097;-59
2021/05/08 07:07:14;;;;;;;4.97;1.70;;;12.30;91.20;;;;;;4207746;28;20148;-59
2021/05/08 07:09:16;;;;;;;6.20;1.87;;;12.40;91.40;;;;;;4208131;28;20040;-56
2021/05/08 07:11:17;;;;;;;4.63;2.47;;;12.50;90.40;;;;;;4207381;28;20032;-55
2021/05/08 07:13:20;;;;;;;3.10;1.90;;;12.40;87.40;;;;;;4207649;28;20040;-56
2021/05/08 07:15:21;;;;;;;2.80;0.83;;;12.30;86.00;;;;;;4207327;28;20055;-60
2021/05/08 07:17:22;;;;;;;5.17;1.40;;;12.10;85.70;;;;;;4207810;28;20040;-59
2021/05/08 07:19:23;;;;;;;2.97;1.53;;;12.00;86.60;;;;;;4208300;28;20802;-59
2021/05/08 07:21:26;;;;;;;2.77;1.60;;;12.10;87.60;;;;;;4208180;28;20036;-59
2021/05/08 07:23:27;;;;;;;1.33;1.20;;;12.10;88.10;;;;;;4206282;28;20040;-60
2021/05/08 07:25:30;;;;;;;3.93;1.30;;;12.20;88.00;;;;;;4207686;28;20036;-60
2021/05/08 07:27:31;;;;;;;4.50;1.20;;;12.10;88.00;;;;;;4207900;28;20081;-59
2021/05/08 07:29:32;;;;;;;3.60;1.23;;;11.70;87.40;;;;;;4205944;28;20492;-63
2021/05/08 07:31:33;;;;;;;1.73;1.20;;;11.70;88.50;;;;;;4207287;28;20093;-56
2021/05/08 07:33:34;;;;;;;5.13;1.70;;;11.70;88.80;;;;;;4207267;28;20542;-63
2021/05/08 07:35:35;;;;;;;1.67;1.27;;;11.80;88.80;;;;;;4207877;28;20036;-67
2021/05/08 07:37:37;;;;;;;3.07;1.50;;;12.00;88.10;;;;;;4207095;28;20445;-58
2021/05/08 07:39:38;;;;;;;6.33;1.70;;;12.30;87.20;;;;;;4207865;28;20579;-63
2021/05/08 07:41:39;;;;;;;4.70;1.47;;;12.40;84.40;;;;;;4206720;28;20088;-59
2021/05/08 07:43:40;;;;;;;2.37;1.07;;;12.30;84.90;;;;;;4207093;28;20040;-59
2021/05/08 07:45:41;;;;;;;1.27;1.13;;;12.40;84.10;;;;;;4206573;28;20036;-59
2021/05/08 07:47:42;;;;;;;2.70;1.30;;;12.40;82.90;;;;;;4207460;28;20069;-58
2021/05/08 07:49:43;;;;;;;2.90;1.90;;;12.50;83.20;;;;;;4206997;28;20024;-60
2021/05/08 07:51:44;;;;;;;2.63;1.40;;;12.50;80.70;;;;;;4207512;28;20078;-60
2021/05/08 07:53:45;;;;;;;2.37;0.90;;;12.40;81.10;;;;;;4207132;28;20466;-59
2021/05/08 07:55:47;;;;;;;1.50;1.00;;;12.40;80.00;;;;;;4207082;28;20028;-59
2021/05/08 07:57:49;;;;;;;3.10;1.03;;;12.30;78.30;;;;;;4206611;28;20391;-59
2021/05/08 07:59:50;;;;;;;1.37;0.90;;;12.20;78.90;;;;;;4207111;28;20427;-59
2021/05/08 08:01:51;;;;;;;1.53;1.00;;;12.00;79.90;;;;;;4207197;28;20036;-58
2021/05/08 08:03:52;;;;;;;2.10;1.27;;;12.10;81.80;;;;;;4206415;28;20476;-61
2021/05/08 08:05:53;;;;;;;3.03;2.00;;;12.10;80.90;;;;;;4207133;28;20137;-59
2021/05/08 08:07:55;;;;;;;2.17;1.43;;;12.20;80.30;;;;;;4206586;28;20133;-63
2021/05/08 08:09:56;;;;;;;3.07;0.87;;;12.30;80.90;;;;;;4207252;28;20412;-60
2021/05/08 08:11:57;;;;;;;1.10;0.70;;;12.30;79.20;;;;;;4206929;28;20031;-60
2021/05/08 08:13:58;;;;;;;1.23;0.90;;;12.30;77.10;;;;;;4206787;28;20033;-61
2021/05/08 08:16:00;;;;;;;1.73;1.00;;;12.30;74.70;;;;;;4206738;28;20024;-59
2021/05/08 08:18:01;;;;;;;0.80;0.70;;;12.40;74.30;;;;;;4206960;28;20089;-59
2021/05/08 08:20:07;;;;;;;1.87;1.20;;;12.50;73.10;;;;;;4206532;28;20032;-60
2021/05/08 08:22:08;;;;;;;3.40;1.77;;;12.30;71.40;;;;;;4206784;28;20447;-59
2021/05/08 08:24:10;;;;;;;5.97;1.50;;;12.40;73.60;;;;;;4206394;28;20036;-57
2021/05/08 08:26:11;;;;;;;1.70;1.20;;;12.50;74.30;;;;;;4206484;28;20044;-59
2021/05/08 08:28:12;;;;;;;2.23;1.63;;;12.70;73.90;;;;;;4206314;28;20049;-58
2021/05/08 08:30:14;;;;;;;1.43;0.60;;;13.00;73.60;;;;;;4206181;28;20070;-64
2021/05/08 08:32:15;;;;;;;0.87;0.60;;;12.80;71.40;;;;;;4206461;28;20033;-57
2021/05/08 08:34:16;;;;;;;3.73;0.80;;;12.60;70.70;;;;;;4209893;28;20774;-60
2021/05/08 08:36:17;;;;;;;1.73;1.30;;;12.50;71.40;;;;;;4223087;27;20450;-59
2021/05/08 08:38:18;;;;;;;4.73;1.00;;;12.60;71.60;;;;;;4222778;28;20015;-60
2021/05/08 08:40:21;;;;;;;1.07;0.77;;;12.70;71.20;;;;;;4223248;28;20334;-58
2021/05/08 08:42:22;;;;;;;1.03;0.93;;;12.70;70.10;;;;;;4222212;27;20065;-57
2021/05/08 08:44:23;;;;;;;2.23;0.87;;;12.90;70.00;;;;;;4223354;28;20437;-66
2021/05/08 08:46:25;;;;;;;0.93;0.60;;;13.00;69.00;;;;;;4222794;28;20793;-57
2021/05/08 08:48:26;;;;;;;0.60;0.60;;;12.90;68.50;;;;;;4223774;27;20111;-57
2021/05/08 08:50:29;;;;;;;1.23;0.70;;;12.70;67.70;;;;;;4222764;28;20440;-59
2021/05/08 08:52:31;;;;;;;0.80;0.70;;;12.60;68.90;;;;;;4222787;28;20491;-66
2021/05/08 08:54:32;;;;;;;2.50;0.60;;;12.50;68.10;;;;;;4222535;28;20096;-59
2021/05/08 08:56:41;;;;;;;1.70;0.77;;;12.40;67.20;;;;;;4222851;28;20032;-58
2021/05/08 08:58:44;;;;;;;4.53;0.70;;;12.50;67.50;;;;;;4222523;28;20027;-57
2021/05/08 09:00:45;;;;;;;2.50;0.60;;;12.60;68.50;;;;;;4221340;27;20043;-58
2021/05/08 09:02:49;;;;;;;2.80;1.30;;;12.60;68.30;;;;;;4222761;28;20084;-58
2021/05/08 09:04:51;;;;;;;2.93;0.67;;;12.80;68.30;;;;;;4222182;28;20039;-60
2021/05/08 09:06:54;;;;;;;1.30;0.60;;;12.80;66.90;;;;;;4222706;27;20051;-59
2021/05/08 09:08:57;;;;;;;1.60;0.50;;;12.60;66.30;;;;;;4222504;27;20085;-58
2021/05/08 09:11:24;;;;;;;3.43;0.77;;;12.60;66.50;;;;;;4222469;28;20073;-56
2021/05/08 09:13:26;;;;;;;1.83;1.20;;;12.40;64.20;;;;;;4222130;28;20031;-58
2021/05/08 09:15:35;;;;;;;2.43;0.77;;;12.50;67.70;;;;;;4223289;27;20047;-58
2021/05/08 09:17:45;;;;;;;0.67;0.40;;;12.50;67.10;;;;;;4222454;28;20035;-60
2021/05/08 09:19:52;;;;;;;1.52;0.80;;;12.60;64.60;;;;;;4223094;28;20085;-59
2021/05/08 09:21:53;;;;;;;1.60;0.67;;;12.50;64.10;;;;;;4222033;28;20421;-59
2021/05/08 09:23:59;;;;;;;0.83;0.50;;;12.40;63.10;;;;;;4222743;28;20077;-59
2021/05/08 09:26:16;;;;;;;2.73;0.50;;;12.40;63.10;;;;;;4222160;28;20184;-60
2021/05/08 09:28:18;;;;;;;1.80;0.53;;;12.40;63.80;;;;;;4223067;28;20089;-59
2021/05/08 09:30:23;;;;;;;3.43;0.67;;;12.60;64.60;;;;;;4221763;28;20036;-59
2021/05/08 09:32:24;;;;;;;3.20;0.50;;;12.80;64.30;;;;;;4222411;28;20096;-58
2021/05/08 09:34:25;;;;;;;0.83;0.40;;;12.80;63.40;;;;;;4222018;28;20518;-58
2021/05/08 09:36:26;;;;;;;3.90;0.50;;;12.70;62.60;;;;;;4223130;28;20357;-60
2021/05/08 09:38:32;;;;;;;1.30;0.73;;;12.70;62.90;;;;;;4221442;28;20028;-59
2021/05/08 09:40:35;;;;;;;2.50;1.10;;;12.60;62.70;;;;;;4222070;28;20027;-59
2021/05/08 09:42:47;;;;;;;1.37;0.60;;;12.60;64.20;;;;;;4221749;28;20084;-58
2021/05/08 09:44:57;;;;;;;1.10;0.60;;;12.60;63.70;;;;;;4222201;28;20016;-64
2021/05/08 09:46:59;;;;;;;1.75;0.70;;;12.60;63.70;;;;;;4221406;28;20061;-60
2021/05/08 09:49:11;;;;;;;1.60;0.90;;;12.60;63.90;;;;;;4221023;27;20477;-59
2021/05/08 09:51:27;;;;;;;0.60;0.43;;;12.70;63.20;;;;;;4222044;28;20031;-59
2021/05/08 09:53:30;;;;;;;1.10;0.63;;;12.80;63.50;;;;;;4222561;28;20152;-60
2021/05/08 09:55:34;;;;;;;5.13;1.20;;;12.90;63.50;;;;;;4221003;27;20031;-59
2021/05/08 09:57:35;;;;;;;2.87;1.07;;;12.80;62.30;;;;;;4222453;28;20031;-59
2021/05/08 09:59:37;;;;;;;3.00;1.07;;;12.80;62.90;;;;;;4221864;28;20073;-59
2021/05/08 10:01:38;;;;;;;2.63;1.07;;;12.50;62.60;;;;;;4222117;28;20035;-59
2021/05/08 10:03:39;;;;;;;1.57;1.00;;;12.60;63.60;;;;;;4220211;28;20080;-58
2021/05/08 10:05:43;;;;;;;1.53;0.87;;;12.50;64.40;;;;;;4222029;28;20139;-59
2021/05/08 10:07:44;;;;;;;2.60;0.53;;;12.50;64.40;;;;;;4221729;28;20490;-55
2021/05/08 10:09:46;;;;;;;2.70;0.90;;;12.60;64.20;;;;;;4205079;28;20036;-58
2021/05/08 10:11:47;;;;;;;4.80;1.00;;;12.70;63.50;;;;;;4204888;28;20105;-57
2021/05/08 10:13:48;;;;;;;5.97;2.10;;;12.80;63.90;;;;;;4204759;28;20037;-58
2021/05/08 10:15:50;;;;;;;4.77;1.80;;;12.90;65.00;;;;;;4205375;28;20040;-55
2021/05/08 10:17:52;;;;;;;1.73;1.00;;;12.90;64.60;;;;;;4204184;28;20044;-61
2021/05/08 10:20:08;;;;;;;9.00;2.13;;;13.00;64.70;;;;;;4206136;28;20097;-57
2021/05/08 10:22:12;;;;;;;1.33;0.87;;;12.90;63.30;;;;;;4203654;28;20054;-58
2021/05/08 10:24:14;;;;;;;1.57;0.80;;;13.00;64.20;;;;;;4205018;28;20039;-56
2021/05/08 10:26:16;;;;;;;3.23;1.50;;;13.10;63.90;;;;;;4204281;28;20097;-57
2021/05/08 10:28:18;;;;;;;3.90;2.10;;;13.00;63.90;;;;;;4204737;28;20074;-58
2021/05/08 10:30:22;;;;;;;2.93;1.60;;;12.80;63.70;;;;;;4204257;28;20109;-59
2021/05/08 10:32:24;;;;;;;2.17;1.10;;;12.70;63.70;;;;;;4205182;28;20094;-59
2021/05/08 10:34:31;;;;;;;0.73;0.60;;;12.30;62.90;;;;;;4204912;28;20750;-54
2021/05/08 10:36:47;;;;;;;2.60;1.03;;;11.90;63.70;;;;;;4205156;28;20070;-58
2021/05/08 10:39:05;;;;;;;1.27;1.17;;;11.90;64.80;;;;;;4203769;28;20584;-58
2021/05/08 10:41:11;;;;;;;5.87;1.37;;;11.90;61.60;;;;;;4204794;28;20028;-59